Marina, Croatia
Current Conditions -  °F | °C
As of 1:00 AM on Monday 22 Dec 2014 (Local Time) from LDSP Reporting Station
Clear Clear  
Wind Chill:   Ceiling: Unl
Heat Index:   Visibility: 6mi
Dew Point: -3°   Wind: 0mph
Humidity: 57%   Direction: NA
Pressure: 30.48"   Gusts: NA
Location:  43.51°N, 16.1°E
Report Text: LDSP 220000Z 00000KT CAVOK 05/M03 Q1032
Loading
Personal Weather Stations






























Interactive Weather Map New forecast layout! Learn more

10-Day Weather Forecast

Advertisements
Track Severe Weather on mobile